Time;durP1;ratioP1;P1;durP2;ratioP2;P2;SDS_P1;SDS_P2;PMS_P1;PMS_P2;Temp;Humidity;BMP_temperature;BMP_pressure;BME280_temperature;BME280_humidity;BME280_pressure;Samples;Min_cycle;Max_cycle;Signal;HPM_P1;HPM_P2
2022/05/14 00:00:21;;;;;;;10.10;5.50;;;;;;;13.98;82.54;94917.72;4832612;29;20106;-79
2022/05/14 00:02:48;;;;;;;9.02;5.25;;;;;;;13.99;83.96;94928.97;4831636;29;20058;-78
2022/05/14 00:05:21;;;;;;;8.50;5.65;;;;;;;14.06;83.81;94932.19;4832859;29;20053;-79
2022/05/14 00:07:53;;;;;;;6.70;4.95;;;;;;;14.09;83.60;94934.31;4844944;29;20082;-78
2022/05/14 00:10:22;;;;;;;7.57;5.22;;;;;;;14.09;84.38;94926.47;4837734;29;20050;-78
2022/05/14 00:13:06;;;;;;;7.03;5.22;;;;;;;14.06;84.90;94919.09;4865033;29;20056;-79
2022/05/14 00:15:41;;;;;;;8.13;5.82;;;;;;;14.08;84.71;94922.25;4829272;29;20454;-78
2022/05/14 00:18:10;;;;;;;7.82;5.53;;;;;;;13.78;84.88;94886.94;4861089;29;20054;-79
2022/05/14 00:20:37;;;;;;;7.75;5.10;;;;;;;13.81;85.22;94896.91;4829158;29;20061;-79
2022/05/14 00:23:06;;;;;;;8.45;5.35;;;;;;;13.86;85.32;94910.03;4829298;29;20050;-78
2022/05/14 00:25:37;;;;;;;10.02;6.93;;;;;;;13.84;85.25;94912.09;4844622;29;20045;-79
2022/05/14 00:28:07;;;;;;;9.88;5.47;;;;;;;13.65;84.86;94897.81;4836509;29;20133;-79
2022/05/14 00:30:37;;;;;;;7.00;5.13;;;;;;;13.66;84.72;94899.41;4845714;29;20076;-78
2022/05/14 00:33:05;;;;;;;6.40;5.22;;;;;;;13.67;84.94;94900.97;4860218;29;20675;-78
2022/05/14 00:35:32;;;;;;;7.05;4.97;;;;;;;13.62;85.03;94903.56;4844746;29;20118;-77
2022/05/14 00:38:01;;;;;;;8.50;5.18;;;;;;;13.47;85.46;94889.28;4844814;29;20604;-78
2022/05/14 00:40:46;;;;;;;6.28;5.05;;;;;;;13.44;85.76;94892.38;4859194;29;20056;-78
2022/05/14 00:43:15;;;;;;;7.85;5.60;;;;;;;13.43;85.48;94901.25;4830468;29;20098;-78
2022/05/14 00:46:09;;;;;;;6.78;5.43;;;;;;;13.43;84.31;94890.78;4827564;29;20106;-78
2022/05/14 00:48:39;;;;;;;8.57;4.35;;;;;;;13.37;83.14;94902.25;4859982;29;20081;-78
2022/05/14 00:51:11;;;;;;;5.63;4.38;;;;;;;13.24;84.15;94903.41;4828664;29;20038;-77
2022/05/14 00:53:44;;;;;;;14.35;6.05;;;;;;;13.17;85.19;94893.13;4830016;29;20110;-78
2022/05/14 00:56:15;;;;;;;10.68;5.40;;;;;;;13.19;85.34;94901.50;4829314;29;20046;-77
2022/05/14 00:58:51;;;;;;;8.48;5.97;;;;;;;13.09;85.13;94896.19;4821087;29;20057;-77
2022/05/14 01:01:19;;;;;;;8.68;4.82;;;;;;;12.95;84.81;94901.00;4828846;29;20141;-78
2022/05/14 01:03:47;;;;;;;7.50;5.50;;;;;;;12.88;85.59;94894.38;4828621;29;20448;-78
2022/05/14 01:06:19;;;;;;;7.60;5.55;;;;;;;12.87;86.11;94892.78;4826577;29;20524;-78
2022/05/14 01:08:49;;;;;;;9.00;5.60;;;;;;;12.90;86.66;94902.75;4830713;29;20053;-77
2022/05/14 01:11:20;;;;;;;8.20;5.53;;;;;;;12.82;86.33;94886.47;4829607;29;20716;-77
2022/05/14 01:13:47;;;;;;;9.18;6.28;;;;;;;12.86;86.50;94896.44;4816159;29;20144;-78
2022/05/14 01:16:16;;;;;;;7.07;5.47;;;;;;;12.84;87.46;94898.47;4829432;29;20074;-78
2022/05/14 01:18:42;;;;;;;8.65;5.75;;;;;;;12.77;86.96;94889.00;4814324;29;20050;-78
2022/05/14 01:21:24;;;;;;;11.55;6.13;;;;;;;12.81;87.34;94895.31;4814729;29;20045;-78
2022/05/14 01:26:55;;;;;;;10.70;6.13;;;;;;;12.85;88.95;94900.84;4859741;29;20056;-79
2022/05/14 01:29:24;;;;;;;9.90;6.05;;;;;;;12.77;89.93;94888.22;4845094;29;20145;-79
2022/05/14 01:31:58;;;;;;;11.73;5.70;;;;;;;12.92;89.74;94900.69;4860522;29;20721;-78
2022/05/14 01:34:30;;;;;;;8.60;6.00;;;;;;;12.92;89.08;94900.69;4828378;29;20596;-79
2022/05/14 01:36:59;;;;;;;10.60;6.10;;;;;;;12.92;89.53;94895.47;4829399;29;20486;-78
2022/05/14 01:39:26;;;;;;;9.07;5.90;;;;;;;12.88;89.06;94894.38;4829584;29;20053;-79
2022/05/14 01:41:53;;;;;;;13.63;8.02;;;;;;;12.88;88.87;94897.00;4814868;29;20050;-78
2022/05/14 01:44:22;;;;;;;11.10;6.18;;;;;;;12.73;89.64;94893.16;4813006;29;20053;-78
2022/05/14 01:46:49;;;;;;;9.80;6.00;;;;;;;12.62;90.60;94884.41;4831095;29;20066;-79
2022/05/14 01:49:17;;;;;;;9.27;6.40;;;;;;;12.57;91.34;94883.53;4829071;29;20739;-78
2022/05/14 01:51:45;;;;;;;11.13;5.60;;;;;;;12.54;91.27;94874.34;4829081;29;20054;-79
2022/05/14 01:54:13;;;;;;;9.75;6.22;;;;;;;12.49;91.64;94876.09;4828492;29;20045;-78
2022/05/14 01:56:40;;;;;;;8.05;5.63;;;;;;;12.46;91.44;94882.63;4856585;29;20053;-79
2022/05/14 01:59:09;;;;;;;9.25;6.25;;;;;;;12.43;90.73;94883.88;4828130;29;20046;-78
2022/05/14 02:01:39;;;;;;;13.85;8.20;;;;;;;12.27;90.79;94879.47;4827712;29;20583;-78
2022/05/14 02:04:09;;;;;;;11.80;6.43;;;;;;;12.18;89.65;94880.91;4814495;29;20060;-78
2022/05/14 02:06:40;;;;;;;10.63;6.63;;;;;;;12.18;89.65;94883.53;4826460;29;20049;-78
2022/05/14 02:09:09;;;;;;;10.43;6.10;;;;;;;12.11;89.56;94885.50;4828943;29;20046;-78
2022/05/14 02:11:39;;;;;;;10.20;6.88;;;;;;;12.09;90.21;94887.56;4828363;29;20054;-79
2022/05/14 02:14:13;;;;;;;10.38;6.30;;;;;;;11.93;90.50;94874.28;4858529;29;20574;-78
2022/05/14 02:16:42;;;;;;;10.50;6.60;;;;;;;11.89;92.00;94875.75;4857969;29;20137;-78
2022/05/14 02:19:10;;;;;;;12.65;7.35;;;;;;;11.85;92.19;94866.81;4842631;29;20069;-79
2022/05/14 02:21:37;;;;;;;7.53;5.30;;;;;;;11.90;93.15;94874.75;4841170;29;20057;-78
2022/05/14 02:24:05;;;;;;;11.07;7.15;;;;;;;11.96;93.77;94873.81;4828435;29;20078;-79
2022/05/14 02:26:32;;;;;;;17.30;7.85;;;;;;;12.02;94.28;94878.06;4827866;29;20211;-78
2022/05/14 02:28:59;;;;;;;10.20;6.68;;;;;;;11.94;92.81;94864.63;4842164;29;20053;-78
2022/05/14 02:31:27;;;;;;;15.07;6.85;;;;;;;11.99;92.62;94873.34;4828278;29;20046;-77
2022/05/14 02:33:55;;;;;;;12.98;6.60;;;;;;;11.91;93.34;94865.91;4827785;29;20046;-78
2022/05/14 02:36:22;;;;;;;9.00;6.70;;;;;;;11.96;93.92;94868.59;4856945;29;20054;-77
2022/05/14 02:38:49;;;;;;;9.65;6.88;;;;;;;11.88;93.72;94866.34;4835523;29;20140;-78
2022/05/14 02:41:16;;;;;;;12.93;7.40;;;;;;;11.86;93.79;94868.38;4830050;29;20046;-77
2022/05/14 02:43:43;;;;;;;13.60;6.63;;;;;;;11.80;93.62;94872.75;4826887;29;20034;-77
2022/05/14 02:46:12;;;;;;;15.15;8.10;;;;;;;11.79;94.10;94883.41;4829491;29;20050;-78
2022/05/14 02:48:41;;;;;;;12.75;6.95;;;;;;;11.69;95.19;94888.50;4825668;29;20061;-77
2022/05/14 02:51:09;;;;;;;9.85;6.72;;;;;;;11.75;94.97;94895.34;4858721;29;20193;-78
2022/05/14 02:53:36;;;;;;;9.25;6.32;;;;;;;11.72;94.37;94898.44;4827117;29;20432;-80
2022/05/14 02:56:04;;;;;;;9.77;6.20;;;;;;;11.66;94.43;94900.94;4828366;29;20443;-80
2022/05/14 03:01:19;;;;;;;8.50;5.95;;;;;;;11.37;95.61;94863.69;4829739;29;20049;-80
2022/05/14 03:03:46;;;;;;;10.93;6.65;;;;;;;11.56;95.97;94898.19;4826367;29;20084;-77
2022/05/14 03:06:13;;;;;;;9.40;6.60;;;;;;;11.48;96.44;94882.91;4817487;29;20509;-78
2022/05/14 03:08:40;;;;;;;9.57;6.85;;;;;;;11.55;96.46;94899.19;4844648;29;20057;-78
2022/05/14 03:11:08;;;;;;;9.70;6.07;;;;;;;11.47;97.26;94891.78;4815594;29;20042;-78
2022/05/14 03:13:35;;;;;;;10.77;6.65;;;;;;;11.39;98.57;94889.53;4832666;29;20051;-78
2022/05/14 03:16:02;;;;;;;9.20;6.68;;;;;;;11.28;98.93;94884.13;4831546;29;20118;-77
2022/05/14 03:18:31;;;;;;;18.30;7.20;;;;;;;11.31;99.10;94892.50;4820257;29;20045;-79
2022/05/14 03:20:58;;;;;;;13.23;6.75;;;;;;;11.28;99.17;94889.34;4833019;29;20050;-78
2022/05/14 03:23:27;;;;;;;9.68;6.60;;;;;;;11.18;99.09;94863.13;4836534;29;20054;-78
2022/05/14 03:25:54;;;;;;;8.40;6.13;;;;;;;11.34;99.00;94892.03;4834637;29;20533;-78
2022/05/14 03:28:21;;;;;;;13.68;6.95;;;;;;;11.33;98.85;94890.47;4834230;29;20050;-78
2022/05/14 03:30:48;;;;;;;12.55;7.38;;;;;;;11.40;98.72;94899.72;4831059;29;20050;-78
2022/05/14 03:33:15;;;;;;;14.30;6.72;;;;;;;11.37;98.59;94892.38;4815888;29;20516;-78
2022/05/14 03:35:43;;;;;;;12.15;7.13;;;;;;;11.36;98.79;94892.59;4836455;29;20057;-78
2022/05/14 03:38:09;;;;;;;9.80;6.25;;;;;;;11.27;98.90;94882.56;4848892;29;20599;-78
2022/05/14 03:40:36;;;;;;;11.93;7.38;;;;;;;11.45;99.42;94907.66;4833827;29;20128;-78
2022/05/14 03:43:03;;;;;;;11.00;7.13;;;;;;;11.41;98.48;94888.25;4833218;29;20081;-78
2022/05/14 03:45:31;;;;;;;10.43;6.45;;;;;;;11.46;98.05;94893.56;4833503;29;20145;-78
2022/05/14 03:47:58;;;;;;;12.27;7.25;;;;;;;11.52;98.27;94904.88;4834191;29;20045;-78
2022/05/14 03:50:25;;;;;;;10.75;6.95;;;;;;;11.62;98.43;94909.50;4832185;29;20519;-78
2022/05/14 03:52:53;;;;;;;10.55;7.15;;;;;;;11.60;98.43;94901.91;4833448;29;20046;-77
2022/05/14 03:55:22;;;;;;;13.82;7.63;;;;;;;11.61;98.60;94900.06;4833607;29;20780;-78
2022/05/14 03:57:49;;;;;;;10.95;6.90;;;;;;;11.73;98.61;94915.69;4817834;29;20046;-78
2022/05/14 04:00:19;;;;;;;11.48;6.57;;;;;;;11.75;98.49;94903.97;4830484;29;20734;-79
2022/05/14 04:02:47;;;;;;;14.20;6.93;;;;;;;11.73;98.96;94894.81;4831804;29;20580;-78
2022/05/14 04:05:15;;;;;;;14.57;6.82;;;;;;;11.90;99.39;94919.09;4831632;29;20456;-78
2022/05/14 04:07:43;;;;;;;10.15;7.18;;;;;;;11.93;99.44;94916.03;4829901;29;20042;-78
2022/05/14 04:10:16;;;;;;;11.82;6.85;;;;;;;12.00;99.84;94921.09;4828813;29;20522;-78
2022/05/14 04:12:44;;;;;;;14.07;6.63;;;;;;;12.05;99.52;94903.69;4830188;29;20140;-78
2022/05/14 04:15:14;;;;;;;12.55;7.13;;;;;;;12.19;98.94;94924.25;4813374;29;20042;-78
2022/05/14 04:17:42;;;;;;;11.18;6.07;;;;;;;12.31;98.29;94917.13;4815406;29;20576;-79
2022/05/14 04:20:10;;;;;;;10.32;6.63;;;;;;;12.42;97.37;94923.28;4828846;29;20056;-79
2022/05/14 04:22:40;;;;;;;9.60;6.60;;;;;;;12.42;96.98;94912.84;4844366;29;20381;-78
2022/05/14 04:25:07;;;;;;;10.40;6.47;;;;;;;12.60;96.89;94935.28;4847755;29;20054;-79
2022/05/14 04:27:35;;;;;;;10.50;7.07;;;;;;;12.72;96.63;94935.97;4831719;29;20111;-78
2022/05/14 04:30:04;;;;;;;8.73;5.78;;;;;;;12.87;95.60;94935.38;4815949;29;20116;-79
2022/05/14 04:32:32;;;;;;;13.57;7.57;;;;;;;13.04;95.09;94940.56;4845063;29;20491;-79
2022/05/14 04:35:01;;;;;;;8.65;6.47;;;;;;;13.18;94.68;94944.41;4827545;29;20439;-79
2022/05/14 04:37:28;;;;;;;9.25;6.90;;;;;;;13.28;93.25;94937.72;4830099;29;20053;-79
2022/05/14 04:39:55;;;;;;;12.32;7.07;;;;;;;13.30;92.65;94923.34;4813476;29;20057;-79
2022/05/14 04:42:22;;;;;;;10.40;7.25;;;;;;;13.53;91.73;94943.22;4843892;29;20061;-80
2022/05/14 04:44:50;;;;;;;13.73;7.18;;;;;;;13.49;90.06;94934.31;4845791;29;20069;-78
2022/05/14 04:47:18;;;;;;;12.43;6.40;;;;;;;13.72;88.93;94945.50;4827960;29;20141;-78
2022/05/14 04:49:47;;;;;;;11.23;7.15;;;;;;;13.84;89.33;94953.22;4831746;29;20049;-79
2022/05/14 04:52:16;;;;;;;9.60;6.43;;;;;;;13.88;89.30;94934.16;4842158;29;20052;-79
2022/05/14 04:54:44;;;;;;;9.63;5.90;;;;;;;14.17;88.19;94957.44;4846113;29;20046;-79
2022/05/14 04:57:11;;;;;;;10.38;5.97;;;;;;;14.25;85.92;94948.31;4843403;29;20050;-79
2022/05/14 04:59:38;;;;;;;6.63;5.25;;;;;;;14.52;84.75;94962.13;4831207;29;20112;-79
2022/05/14 05:04:54;;;;;;;6.40;5.10;;;;;;;14.79;83.69;94957.88;4829749;29;20050;-79
2022/05/14 05:07:23;;;;;;;9.13;5.80;;;;;;;14.87;84.39;94944.28;4843336;29;20053;-79
2022/05/14 05:09:50;;;;;;;7.70;4.85;;;;;;;15.03;83.91;94953.78;4829559;29;20133;-79
2022/05/14 05:12:17;;;;;;;6.35;5.20;;;;;;;15.20;83.84;94955.47;4826560;29;20061;-79
2022/05/14 05:14:45;;;;;;;8.73;5.82;;;;;;;15.33;83.40;94962.84;4827536;29;20140;-78
2022/05/14 05:17:13;;;;;;;8.45;6.22;;;;;;;15.47;82.18;94973.66;4828942;29;20132;-79
2022/05/14 05:19:40;;;;;;;8.93;6.18;;;;;;;15.54;82.04;94981.28;4825748;29;20060;-79
2022/05/14 05:22:07;;;;;;;8.70;5.90;;;;;;;15.59;80.12;94978.66;4830396;29;20045;-79
2022/05/14 05:24:34;;;;;;;11.18;6.88;;;;;;;15.69;79.84;94976.06;4844782;29;20056;-80
2022/05/14 05:27:01;;;;;;;9.10;6.18;;;;;;;15.84;78.88;94983.22;4836444;29;20041;-80
2022/05/14 05:29:29;;;;;;;8.63;5.32;;;;;;;15.96;77.39;94980.38;4826820;29;20540;-79
2022/05/14 05:31:56;;;;;;;7.55;5.80;;;;;;;16.04;78.98;94982.47;4832994;29;20050;-79
2022/05/14 05:34:23;;;;;;;9.45;5.82;;;;;;;16.21;77.76;94988.25;4829354;29;20130;-79
2022/05/14 05:36:52;;;;;;;8.43;6.20;;;;;;;16.32;76.35;94977.75;4829499;29;20119;-80
2022/05/14 05:39:19;;;;;;;8.88;6.15;;;;;;;16.56;76.13;94984.03;4829209;29;20060;-80
2022/05/14 05:41:46;;;;;;;9.45;5.88;;;;;;;16.74;74.15;94989.81;4845527;29;20058;-79
2022/05/14 05:44:13;;;;;;;13.13;6.15;;;;;;;16.88;73.76;94982.97;4829085;29;20050;-80
2022/05/14 05:46:41;;;;;;;7.68;5.70;;;;;;;16.85;73.06;94980.88;4829514;29;20760;-80
2022/05/14 05:49:08;;;;;;;6.95;5.50;;;;;;;17.02;73.44;94974.53;4815520;29;20665;-79
2022/05/14 05:51:35;;;;;;;7.25;6.00;;;;;;;17.06;73.34;94986.88;4830165;29;20072;-79
2022/05/14 05:56:47;;;;;;;8.00;5.40;;;;;;;17.31;72.53;94993.91;4829674;29;20049;-79
2022/05/14 05:59:16;;;;;;;7.35;5.93;;;;;;;17.32;70.78;94995.50;4829411;29;20058;-77
2022/05/14 06:01:44;;;;;;;10.95;5.97;;;;;;;17.28;71.29;95002.34;4828333;29;20062;-76
2022/05/14 06:04:13;;;;;;;10.95;5.90;;;;;;;17.27;71.34;95008.69;4826327;29;20041;-75
2022/05/14 06:06:42;;;;;;;8.00;5.50;;;;;;;17.23;72.13;94999.72;4827017;29;20128;-76
2022/05/14 06:09:17;;;;;;;13.32;5.40;;;;;;;17.34;72.14;95003.91;4830652;29;20516;-75
2022/05/14 06:11:44;;;;;;;6.88;5.78;;;;;;;17.28;72.79;94988.41;4828882;29;20504;-76
2022/05/14 06:14:12;;;;;;;10.98;5.75;;;;;;;17.46;72.13;95010.72;4830225;29;20565;-76
2022/05/14 06:16:40;;;;;;;7.32;5.38;;;;;;;17.47;72.79;95007.81;4828762;29;20691;-75
2022/05/14 06:19:09;;;;;;;6.65;4.90;;;;;;;17.62;73.14;95009.56;4829263;29;20456;-75
2022/05/14 06:21:37;;;;;;;8.05;5.20;;;;;;;17.78;71.77;95013.72;4861603;29;20045;-75
2022/05/14 06:24:06;;;;;;;8.25;5.35;;;;;;;17.88;70.99;95017.38;4833339;29;20045;-75
2022/05/14 06:26:33;;;;;;;7.50;5.82;;;;;;;17.81;70.42;95011.59;4860853;29;20056;-76
2022/05/14 06:29:01;;;;;;;7.82;5.38;;;;;;;17.86;69.68;95003.69;4844201;29;20053;-75
2022/05/14 06:31:28;;;;;;;6.80;5.35;;;;;;;18.11;69.95;95022.00;4828299;29;20057;-75
2022/05/14 06:33:55;;;;;;;9.13;5.60;;;;;;;18.15;68.59;95012.50;4831794;29;20074;-76
2022/05/14 06:36:22;;;;;;;7.38;5.88;;;;;;;18.23;68.13;95012.97;4834831;29;20133;-76
2022/05/14 06:38:49;;;;;;;8.20;5.75;;;;;;;18.52;68.14;95032.25;4831265;29;20054;-75
2022/05/14 06:41:17;;;;;;;8.48;5.57;;;;;;;18.58;66.67;95024.28;4830019;29;20061;-75
2022/05/14 06:43:44;;;;;;;8.35;6.35;;;;;;;18.56;65.02;95018.50;4845117;29;20046;-76
2022/05/14 06:46:11;;;;;;;10.63;4.82;;;;;;;18.62;64.67;95027.94;4836208;29;20050;-77
2022/05/14 06:48:39;;;;;;;7.32;5.60;;;;;;;18.76;64.19;95030.75;4833742;29;20109;-77
2022/05/14 06:51:13;;;;;;;6.35;5.10;;;;;;;19.00;62.51;95025.56;4836396;29;20046;-77
2022/05/14 06:53:42;;;;;;;6.75;5.05;;;;;;;19.10;61.87;95014.88;4865134;29;20042;-77
2022/05/14 06:56:12;;;;;;;8.55;5.63;;;;;;;19.32;62.29;95026.78;4832375;29;20060;-76
2022/05/14 06:58:42;;;;;;;5.97;5.00;;;;;;;19.20;61.17;95020.06;4829160;29;20505;-76
2022/05/14 07:01:09;;;;;;;5.88;4.80;;;;;;;19.50;60.51;95023.44;4827357;29;20049;-72
2022/05/14 07:06:38;;;;;;;6.35;5.20;;;;;;;19.84;59.08;95036.50;4832866;29;20523;-75
2022/05/14 07:09:06;;;;;;;7.80;5.93;;;;;;;20.01;58.50;95043.16;4834570;29;20186;-76
2022/05/14 07:11:35;;;;;;;7.28;5.35;;;;;;;20.15;58.42;95048.50;4831083;29;20126;-77
2022/05/14 07:14:03;;;;;;;9.60;5.38;;;;;;;20.24;58.87;95046.81;4831823;29;20065;-75
2022/05/14 07:16:30;;;;;;;7.35;5.53;;;;;;;20.42;57.34;95048.66;4832159;29;20603;-75
2022/05/14 07:18:57;;;;;;;6.45;5.20;;;;;;;20.40;56.12;95021.72;4833057;29;20081;-75
2022/05/14 07:21:28;;;;;;;6.50;5.05;;;;;;;20.54;56.14;95039.50;4832567;29;20054;-76
2022/05/14 07:23:56;;;;;;;10.07;6.28;;;;;;;20.58;54.93;95029.88;4833319;29;20591;-76
2022/05/14 07:26:23;;;;;;;7.53;5.20;;;;;;;20.85;55.65;95033.72;4827507;29;20090;-75
2022/05/14 07:28:51;;;;;;;8.15;5.60;;;;;;;21.09;55.00;95042.31;4828114;29;20559;-75
2022/05/14 07:31:18;;;;;;;9.45;5.30;;;;;;;21.12;53.84;95043.59;4831161;29;20038;-76
2022/05/14 07:33:45;;;;;;;6.85;5.57;;;;;;;21.22;54.22;95053.22;4831831;29;20056;-77
2022/05/14 07:36:17;;;;;;;10.65;5.68;;;;;;;21.42;53.13;95052.84;4832556;29;20046;-76
2022/05/14 07:38:45;;;;;;;8.18;6.03;;;;;;;21.48;53.28;95035.81;4846519;29;20046;-79
2022/05/14 07:41:15;;;;;;;7.57;6.35;;;;;;;21.73;52.42;95052.28;4831136;29;20487;-76
2022/05/14 07:43:47;;;;;;;10.05;6.35;;;;;;;21.86;51.21;95054.13;4867564;29;20046;-75
2022/05/14 07:46:18;;;;;;;8.48;5.60;;;;;;;21.96;51.79;95045.94;4837601;29;20065;-76
2022/05/14 07:48:47;;;;;;;5.93;5.28;;;;;;;22.20;51.93;95055.56;4847292;29;20582;-73
2022/05/14 07:51:14;;;;;;;8.57;5.55;;;;;;;22.28;50.89;95054.84;4833284;29;20049;-74
2022/05/14 07:53:41;;;;;;;9.82;6.28;;;;;;;22.33;50.96;95048.66;4846159;29;20054;-74
2022/05/14 07:56:09;;;;;;;11.95;5.85;;;;;;;22.61;50.06;95049.31;4829998;29;20065;-74
2022/05/14 07:58:38;;;;;;;7.07;6.18;;;;;;;22.64;49.04;95054.03;4830331;29;20050;-75
2022/05/14 08:01:07;;;;;;;7.70;6.40;;;;;;;22.84;49.02;95057.28;4832038;29;20057;-74
2022/05/14 08:03:35;;;;;;;7.82;5.70;;;;;;;23.01;49.08;95057.41;4841927;29;20524;-74
2022/05/14 08:06:02;;;;;;;7.82;5.70;;;;;;;22.57;48.69;95051.00;4834811;29;20449;-74
2022/05/14 08:08:29;;;;;;;9.85;6.90;;;;;;;22.76;48.64;95044.72;4825748;29;20058;-73
2022/05/14 08:10:57;;;;;;;11.02;6.13;;;;;;;23.01;48.99;95052.09;4813551;29;20062;-75
2022/05/14 08:13:26;;;;;;;9.48;5.90;;;;;;;23.22;47.58;95046.28;4826291;29;20776;-74
2022/05/14 08:15:54;;;;;;;8.65;6.82;;;;;;;23.33;48.18;95047.56;4840569;29;20054;-74
2022/05/14 08:18:21;;;;;;;9.07;6.22;;;;;;;23.53;46.49;95029.50;4827757;29;20049;-76
2022/05/14 08:20:50;;;;;;;8.32;6.00;;;;;;;23.81;48.12;95030.84;4830927;29;20061;-72
2022/05/14 08:26:06;;;;;;;11.90;6.50;;;;;;;24.15;45.34;95032.00;4825215;29;20061;-73
2022/05/14 08:28:33;;;;;;;11.25;6.60;;;;;;;24.52;46.10;95037.78;4830104;29;20524;-73
2022/05/14 08:31:00;;;;;;;7.55;5.80;;;;;;;24.54;49.30;95030.31;4827589;29;20262;-73
2022/05/14 08:33:28;;;;;;;7.97;5.82;;;;;;;24.23;44.44;95020.56;4829628;29;20867;-73
2022/05/14 08:35:55;;;;;;;8.25;6.18;;;;;;;24.47;46.81;95035.31;4831348;29;20030;-75
2022/05/14 08:38:23;;;;;;;10.32;6.43;;;;;;;24.51;45.52;95036.22;4827962;29;20046;-75
2022/05/14 08:40:59;;;;;;;7.55;5.90;;;;;;;24.23;47.04;95044.50;4829300;29;20042;-75
2022/05/14 08:43:33;;;;;;;8.43;5.90;;;;;;;24.60;47.01;95044.25;4829095;29;20073;-75
2022/05/14 08:46:00;;;;;;;11.35;5.30;;;;;;;24.94;45.80;95038.06;4830007;29;20524;-75
2022/05/14 08:48:37;;;;;;;8.65;6.00;;;;;;;24.94;44.17;95038.06;4831383;29;20405;-75
2022/05/14 08:51:16;;;;;;;9.57;5.45;;;;;;;25.12;43.99;95043.34;4829633;29;20054;-75
2022/05/14 08:53:45;;;;;;;10.45;6.00;;;;;;;25.31;43.51;95041.13;4829481;29;20054;-75
2022/05/14 08:56:21;;;;;;;8.00;5.72;;;;;;;25.29;43.23;95048.66;4828923;29;20041;-74
2022/05/14 08:59:15;;;;;;;9.50;5.53;;;;;;;24.41;45.96;95031.22;4826707;29;20061;-75
2022/05/14 09:01:43;;;;;;;;;;;;;;;24.15;48.30;95036.56;4825995;29;20038;-75
2022/05/14 09:04:13;;;;;;;7.45;5.57;;;;;;;24.59;48.26;95037.34;4827759;29;19924;-75
2022/05/14 09:06:41;;;;;;;7.75;5.30;;;;;;;25.18;48.26;95036.75;4826764;29;20050;-75
2022/05/14 09:09:09;;;;;;;10.02;6.70;;;;;;;25.68;46.60;95049.44;4829232;29;20062;-74
2022/05/14 09:12:01;;;;;;;11.25;6.13;;;;;;;26.21;44.00;95054.47;4829287;29;20057;-75
2022/05/14 09:14:32;;;;;;;8.88;6.53;;;;;;;26.25;43.55;95055.38;4823356;29;20054;-76
2022/05/14 09:17:05;;;;;;;13.35;6.35;;;;;;;26.68;43.02;95054.28;4840116;29;20061;-76
2022/05/14 09:19:37;;;;;;;9.45;6.22;;;;;;;26.98;41.52;95054.19;4828058;29;20065;-77
2022/05/14 09:22:22;;;;;;;6.72;5.57;;;;;;;27.33;41.66;95069.84;4842853;29;20042;-75
2022/05/14 09:24:52;;;;;;;9.73;6.13;;;;;;;27.62;39.49;95061.66;4857246;29;20066;-75
2022/05/14 09:27:50;;;;;;;6.70;5.10;;;;;;;27.54;39.99;95043.81;4828939;29;20057;-75
2022/05/14 09:30:29;;;;;;;9.07;4.93;;;;;;;27.84;38.69;95051.63;4844381;29;20460;-75
2022/05/14 09:32:57;;;;;;;6.90;5.05;;;;;;;27.82;39.10;95061.84;4859000;29;20073;-76
2022/05/14 09:35:26;;;;;;;8.82;6.68;;;;;;;27.53;40.99;95069.00;4826996;29;20058;-77
2022/05/14 09:38:08;;;;;;;11.43;6.25;;;;;;;27.22;41.06;95058.78;4829420;29;20046;-77
2022/05/14 09:40:37;;;;;;;9.57;6.13;;;;;;;26.72;42.88;95046.41;4839957;29;20060;-75
2022/05/14 09:43:16;;;;;;;8.18;5.82;;;;;;;26.57;43.28;95055.78;4826288;29;20440;-75
2022/05/14 09:46:06;;;;;;;18.30;6.82;;;;;;;25.97;45.78;95050.56;4813026;29;20048;-75
2022/05/14 09:48:48;;;;;;;10.07;6.38;;;;;;;25.79;45.70;95065.09;4840836;29;20057;-76
2022/05/14 10:16:35;;;;;;;8.30;7.47;;;;;;;23.47;71.08;95021.66;5076238;27;20630;-71
2022/05/14 10:19:45;;;;;;;8.70;7.53;;;;;;;23.52;76.46;95027.94;5067918;28;20117;-70
2022/05/14 10:28:52;;;;;;;31.45;21.90;;;;;;;23.55;71.07;95037.94;5065869;28;20535;-71
2022/05/14 10:31:46;;;;;;;9.75;7.32;;;;;;;23.64;67.08;95036.09;5071588;28;20044;-70
2022/05/14 10:34:18;;;;;;;12.18;5.47;;;;;;;23.73;64.76;95036.91;5070908;28;20437;-71
2022/05/14 10:36:57;;;;;;;19.80;11.45;;;;;;;23.96;75.84;95036.81;5069810;28;20052;-72
2022/05/14 10:39:35;;;;;;;18.58;12.35;;;;;;;24.38;72.59;95021.19;5069741;28;20271;-71
2022/05/14 10:42:16;;;;;;;10.50;7.53;;;;;;;24.98;64.78;95039.00;5070080;28;20143;-71
2022/05/14 10:44:51;;;;;;;8.82;6.22;;;;;;;25.33;56.59;95044.25;5070231;28;20135;-72
2022/05/14 10:47:19;;;;;;;10.35;6.18;;;;;;;25.46;51.83;95031.81;5070368;28;20041;-71
2022/05/14 11:03:25;;;;;;;7.38;6.25;;;;;;;29.39;42.84;95024.50;5076076;27;1330211;-70
2022/05/14 11:06:02;;;;;;;7.25;6.40;;;;;;;29.67;43.28;95032.44;5093111;28;20047;-71
2022/05/14 11:08:45;;;;;;;9.45;5.93;;;;;;;29.53;41.05;95035.56;5104441;28;20932;-70
2022/05/14 11:11:28;;;;;;;8.05;5.05;;;;;;;29.71;41.33;95029.81;5085125;28;20108;-70
2022/05/14 11:14:07;;;;;;;8.18;4.40;;;;;;;29.85;40.71;95032.09;5088994;28;20131;-76
2022/05/14 11:16:55;;;;;;;6.03;4.63;;;;;;;29.60;39.81;95023.44;5086721;28;20096;-73
2022/05/14 11:19:29;;;;;;;8.98;4.18;;;;;;;29.24;39.76;95022.59;5104441;28;20497;-73
2022/05/14 11:21:56;;;;;;;4.75;4.03;;;;;;;29.03;41.13;95012.88;5101857;28;20036;-73
2022/05/14 11:24:40;;;;;;;5.25;4.00;;;;;;;28.95;43.11;95008.44;5101263;28;20507;-72
2022/05/14 11:27:09;;;;;;;5.90;4.40;;;;;;;29.11;43.91;95016.50;5093505;28;20050;-73
2022/05/14 11:29:55;;;;;;;6.20;4.55;;;;;;;29.20;42.36;95021.72;5108622;28;20066;-73
2022/05/14 11:32:23;;;;;;;6.70;4.00;;;;;;;29.33;41.41;95032.03;5103883;28;20028;-73
2022/05/14 11:34:59;;;;;;;6.28;4.25;;;;;;;29.93;39.63;95020.41;5075454;28;20048;-74
2022/05/14 11:37:36;;;;;;;5.30;4.47;;;;;;;30.39;38.53;95035.94;5087838;28;20035;-74
2022/05/14 11:40:28;;;;;;;4.78;3.95;;;;;;;30.09;40.29;95033.78;5089589;28;20075;-73
2022/05/14 11:43:10;;;;;;;5.82;4.85;;;;;;;30.04;41.11;95026.00;5080353;28;20056;-73
2022/05/14 11:45:49;;;;;;;9.80;5.28;;;;;;;29.90;40.82;95037.97;5105074;28;20043;-70
2022/05/14 11:48:25;;;;;;;7.32;6.05;;;;;;;29.25;43.35;95037.56;5093385;28;20703;-74
2022/05/14 11:51:16;;;;;;;7.90;4.90;;;;;;;28.53;44.00;95038.31;5101388;28;20044;-75
2022/05/14 11:53:50;;;;;;;6.18;4.03;;;;;;;28.09;44.15;95030.19;5071122;28;20066;-75
2022/05/14 11:56:48;;;;;;;6.53;3.47;;;;;;;27.97;43.34;95031.75;5103491;28;20028;-75
2022/05/14 11:59:33;;;;;;;5.93;4.65;;;;;;;28.92;43.27;95039.41;5086474;28;20053;-75
2022/05/14 12:02:06;;;;;;;6.70;5.05;;;;;;;28.99;40.92;95030.75;5105596;28;20296;-76
2022/05/14 12:04:41;;;;;;;6.03;5.40;;;;;;;29.25;39.79;95032.22;5086390;28;20048;-76
2022/05/14 12:07:48;;;;;;;6.03;4.95;;;;;;;29.93;40.43;95021.16;5043058;28;20051;-76
2022/05/14 12:10:23;;;;;;;5.13;4.63;;;;;;;29.85;37.72;95024.03;5090350;28;20036;-76
2022/05/14 12:13:01;;;;;;;4.88;4.38;;;;;;;30.16;38.97;95023.19;5092642;28;20031;-75
2022/05/14 12:15:30;;;;;;;7.07;4.22;;;;;;;29.68;39.15;95025.19;5091030;28;20602;-76
2022/05/14 12:18:00;;;;;;;6.45;4.95;;;;;;;28.93;39.88;95024.84;5094038;28;20123;-74
2022/05/14 12:20:30;;;;;;;6.07;3.88;;;;;;;28.51;41.93;95025.25;5085953;28;20039;-74
2022/05/14 12:23:01;;;;;;;4.18;3.60;;;;;;;28.33;42.02;95016.72;5086254;28;20036;-74
2022/05/14 12:25:37;;;;;;;5.72;3.83;;;;;;;28.07;42.20;95024.38;5089640;28;20119;-74
2022/05/14 12:28:05;;;;;;;7.60;4.25;;;;;;;27.87;42.62;95024.16;5073238;28;20043;-74
2022/05/14 12:46:45;;;;;;;5.80;3.80;;;;;;;28.96;39.42;95031.44;5094933;27;20630;-71
2022/05/14 12:49:17;;;;;;;4.32;3.50;;;;;;;28.73;39.64;95025.88;5096123;28;20112;-70
2022/05/14 12:51:50;;;;;;;6.45;4.60;;;;;;;28.46;38.53;95016.69;5092731;28;20105;-70
2022/05/14 12:54:29;;;;;;;5.38;3.92;;;;;;;28.60;38.74;95012.53;5092505;28;20047;-70
2022/05/14 12:57:03;;;;;;;5.45;3.97;;;;;;;28.90;39.16;95009.50;5094049;28;20043;-70
2022/05/14 12:59:30;;;;;;;;;;;;;;;29.69;37.38;95005.25;5099295;28;20036;-68
2022/05/14 13:02:03;;;;;;;3.95;3.55;;;;;;;30.44;36.81;95000.75;5093235;28;19989;-68
2022/05/14 13:04:47;;;;;;;4.35;3.53;;;;;;;30.90;34.17;95003.53;5095530;28;20509;-70
2022/05/14 13:07:14;;;;;;;4.50;3.65;;;;;;;31.75;34.84;94995.31;5075979;28;20051;-66